sensor_id;sensor_type;location;lat;lon;timestamp;pressure;altitude;pressure_sealevel;temperature;humidity
70248;BME280;57641;51.416;5.506;2022-10-26T00:00:00;101474.13;;;16.25;60.80
70248;BME280;57641;51.416;5.506;2022-10-26T00:02:25;101474.97;;;16.25;60.82
70248;BME280;57641;51.416;5.506;2022-10-26T00:04:50;101465.91;;;16.26;61.23
70248;BME280;57641;51.416;5.506;2022-10-26T00:07:16;101465.91;;;16.26;61.11
70248;BME280;57641;51.416;5.506;2022-10-26T00:09:41;101465.53;;;16.29;61.17
70248;BME280;57641;51.416;5.506;2022-10-26T00:12:07;101456.44;;;16.30;61.09
70248;BME280;57641;51.416;5.506;2022-10-26T00:14:33;101463.34;;;16.33;61.34
70248;BME280;57641;51.416;5.506;2022-10-26T00:16:58;101458.81;;;16.33;61.35
70248;BME280;57641;51.416;5.506;2022-10-26T00:19:24;101454.44;;;16.32;61.47
70248;BME280;57641;51.416;5.506;2022-10-26T00:21:50;101452.38;;;16.34;61.40
70248;BME280;57641;51.416;5.506;2022-10-26T00:24:19;101449.38;;;16.37;61.66
70248;BME280;57641;51.416;5.506;2022-10-26T00:26:44;101433.03;;;16.39;61.50
70248;BME280;57641;51.416;5.506;2022-10-26T00:29:11;101426.63;;;16.40;61.50
70248;BME280;57641;51.416;5.506;2022-10-26T00:31:37;101434.38;;;16.43;61.86
70248;BME280;57641;51.416;5.506;2022-10-26T00:34:04;101440.38;;;16.45;61.26
70248;BME280;57641;51.416;5.506;2022-10-26T00:36:29;101444.13;;;16.44;61.90
70248;BME280;57641;51.416;5.506;2022-10-26T00:38:55;101447.63;;;16.44;61.75
70248;BME280;57641;51.416;5.506;2022-10-26T00:41:28;101440.38;;;16.45;61.53
70248;BME280;57641;51.416;5.506;2022-10-26T00:43:54;101440.38;;;16.45;62.25
70248;BME280;57641;51.416;5.506;2022-10-26T00:48:56;101442.75;;;16.48;61.99
70248;BME280;57641;51.416;5.506;2022-10-26T00:53:52;101441.53;;;16.51;62.17
70248;BME280;57641;51.416;5.506;2022-10-26T00:56:18;101437.66;;;16.53;61.78
70248;BME280;57641;51.416;5.506;2022-10-26T00:58:45;101429.59;;;16.53;61.93
70248;BME280;57641;51.416;5.506;2022-10-26T01:01:10;101429.22;;;16.56;62.10
70248;BME280;57641;51.416;5.506;2022-10-26T01:03:37;101429.22;;;16.56;61.88
70248;BME280;57641;51.416;5.506;2022-10-26T01:06:04;101430.22;;;16.55;61.81
70248;BME280;57641;51.416;5.506;2022-10-26T01:08:30;101424.69;;;16.57;61.81
70248;BME280;57641;51.416;5.506;2022-10-26T01:10:58;101431.75;;;16.58;61.64
70248;BME280;57641;51.416;5.506;2022-10-26T01:13:26;101424.69;;;16.57;61.76
70248;BME280;57641;51.416;5.506;2022-10-26T01:18:50;101411.38;;;16.55;61.63
70248;BME280;57641;51.416;5.506;2022-10-26T01:24:20;101411.09;;;16.50;62.09
70248;BME280;57641;51.416;5.506;2022-10-26T01:32:20;101395.47;;;16.45;61.83
70248;BME280;57641;51.416;5.506;2022-10-26T01:37:57;101388.06;;;16.47;61.53
70248;BME280;57641;51.416;5.506;2022-10-26T01:40:35;101384.38;;;16.48;61.59
70248;BME280;57641;51.416;5.506;2022-10-26T01:43:05;101386.22;;;16.48;61.50
70248;BME280;57641;51.416;5.506;2022-10-26T01:45:33;101386.03;;;16.50;61.46
70248;BME280;57641;51.416;5.506;2022-10-26T01:48:02;101382.31;;;16.51;61.56
70248;BME280;57641;51.416;5.506;2022-10-26T01:50:30;101385.69;;;16.53;61.97
70248;BME280;57641;51.416;5.506;2022-10-26T01:52:56;101383.81;;;16.53;61.70
70248;BME280;57641;51.416;5.506;2022-10-26T01:55:50;101381.59;;;16.57;61.52
70248;BME280;57641;51.416;5.506;2022-10-26T02:06:50;101376.16;;;16.42;62.52
70248;BME280;57641;51.416;5.506;2022-10-26T02:12:18;101366.41;;;16.41;62.59
70248;BME280;57641;51.416;5.506;2022-10-26T02:15:02;101364.00;;;16.46;62.55
70248;BME280;57641;51.416;5.506;2022-10-26T02:17:50;101364.50;;;16.50;62.53
70248;BME280;57641;51.416;5.506;2022-10-26T02:20:26;101359.94;;;16.50;62.42
70248;BME280;57641;51.416;5.506;2022-10-26T02:22:54;101358.94;;;16.51;62.58
70248;BME280;57641;51.416;5.506;2022-10-26T02:25:23;101354.69;;;16.57;62.30
70248;BME280;57641;51.416;5.506;2022-10-26T02:27:54;101363.59;;;16.65;62.05
70248;BME280;57641;51.416;5.506;2022-10-26T02:30:21;101348.06;;;16.67;62.07
70248;BME280;57641;51.416;5.506;2022-10-26T02:32:53;101352.56;;;16.75;61.76
70248;BME280;57641;51.416;5.506;2022-10-26T02:35:22;101349.66;;;16.76;61.45
70248;BME280;57641;51.416;5.506;2022-10-26T02:37:51;101345.78;;;16.79;61.34
70248;BME280;57641;51.416;5.506;2022-10-26T02:40:21;101344.56;;;16.81;61.26
70248;BME280;57641;51.416;5.506;2022-10-26T02:42:51;101339.84;;;16.83;61.37
70248;BME280;57641;51.416;5.506;2022-10-26T02:45:21;101338.66;;;16.86;61.20
70248;BME280;57641;51.416;5.506;2022-10-26T02:47:48;101331.06;;;16.89;61.17
70248;BME280;57641;51.416;5.506;2022-10-26T02:50:14;101336.44;;;16.89;61.02
70248;BME280;57641;51.416;5.506;2022-10-26T02:53:02;101341.44;;;16.93;60.92
70248;BME280;57641;51.416;5.506;2022-10-26T02:55:39;101338.00;;;16.84;60.92
70248;BME280;57641;51.416;5.506;2022-10-26T02:58:12;101335.69;;;16.81;61.39
70248;BME280;57641;51.416;5.506;2022-10-26T03:00:39;101334.63;;;16.82;61.12
70248;BME280;57641;51.416;5.506;2022-10-26T03:03:05;101337.84;;;16.85;61.20
70248;BME280;57641;51.416;5.506;2022-10-26T03:05:31;101338.47;;;16.87;61.27
70248;BME280;57641;51.416;5.506;2022-10-26T03:07:57;101342.19;;;16.86;61.30
70248;BME280;57641;51.416;5.506;2022-10-26T03:10:24;101343.69;;;16.89;61.19
70248;BME280;57641;51.416;5.506;2022-10-26T03:12:49;101334.59;;;16.90;61.23
70248;BME280;57641;51.416;5.506;2022-10-26T03:15:15;101337.75;;;16.94;61.39
70248;BME280;57641;51.416;5.506;2022-10-26T03:17:41;101334.88;;;16.95;61.29
70248;BME280;57641;51.416;5.506;2022-10-26T03:20:07;101324.44;;;16.92;61.63
70248;BME280;57641;51.416;5.506;2022-10-26T03:22:33;101327.97;;;16.93;61.24
70248;BME280;57641;51.416;5.506;2022-10-26T03:24:58;101326.78;;;16.95;61.20
70248;BME280;57641;51.416;5.506;2022-10-26T03:27:24;101327.63;;;16.96;61.38
70248;BME280;57641;51.416;5.506;2022-10-26T03:29:51;101335.72;;;16.96;61.50
70248;BME280;57641;51.416;5.506;2022-10-26T03:32:17;101334.69;;;16.97;61.54
70248;BME280;57641;51.416;5.506;2022-10-26T03:34:42;101336.34;;;16.98;61.39
70248;BME280;57641;51.416;5.506;2022-10-26T03:37:08;101338.03;;;16.99;61.11
70248;BME280;57641;51.416;5.506;2022-10-26T03:39:33;101334.31;;;17.00;61.01
70248;BME280;57641;51.416;5.506;2022-10-26T03:41:59;101327.06;;;17.00;61.03
70248;BME280;57641;51.416;5.506;2022-10-26T03:44:24;101329.09;;;16.98;60.86
70248;BME280;57641;51.416;5.506;2022-10-26T03:46:49;101336.72;;;16.95;60.76
70248;BME280;57641;51.416;5.506;2022-10-26T03:49:15;101334.69;;;16.97;60.70
70248;BME280;57641;51.416;5.506;2022-10-26T03:51:40;101336.34;;;16.98;60.73
70248;BME280;57641;51.416;5.506;2022-10-26T03:54:06;101325.78;;;16.96;60.95
70248;BME280;57641;51.416;5.506;2022-10-26T03:56:31;101329.84;;;16.92;60.86
70248;BME280;57641;51.416;5.506;2022-10-26T03:58:56;101328.19;;;16.91;60.83
70248;BME280;57641;51.416;5.506;2022-10-26T04:01:22;101327.34;;;16.91;60.89
70248;BME280;57641;51.416;5.506;2022-10-26T04:03:47;101327.97;;;16.93;60.75
70248;BME280;57641;51.416;5.506;2022-10-26T04:06:13;101318.41;;;16.90;60.72
70248;BME280;57641;51.416;5.506;2022-10-26T04:08:38;101319.25;;;16.91;60.94
70248;BME280;57641;51.416;5.506;2022-10-26T04:11:04;101325.66;;;16.89;60.91
70248;BME280;57641;51.416;5.506;2022-10-26T04:13:29;101321.97;;;16.91;61.10
70248;BME280;57641;51.416;5.506;2022-10-26T04:15:55;101316.75;;;16.89;61.00
70248;BME280;57641;51.416;5.506;2022-10-26T04:18:20;101320.44;;;16.88;60.97
70248;BME280;57641;51.416;5.506;2022-10-26T04:20:46;101325.84;;;16.88;61.15
70248;BME280;57641;51.416;5.506;2022-10-26T04:23:16;101321.28;;;16.88;61.54
70248;BME280;57641;51.416;5.506;2022-10-26T04:25:42;101324.16;;;16.87;61.62
70248;BME280;57641;51.416;5.506;2022-10-26T04:28:09;101324.16;;;16.87;61.90
70248;BME280;57641;51.416;5.506;2022-10-26T04:30:35;101317.22;;;16.93;61.80
70248;BME280;57641;51.416;5.506;2022-10-26T04:33:03;101324.94;;;16.96;61.79
70248;BME280;57641;51.416;5.506;2022-10-26T04:35:29;101317.69;;;16.96;61.78
70248;BME280;57641;51.416;5.506;2022-10-26T04:37:59;101318.81;;;17.02;61.86
70248;BME280;57641;51.416;5.506;2022-10-26T04:40:25;101320.47;;;17.03;62.08
70248;BME280;57641;51.416;5.506;2022-10-26T04:42:51;101315.91;;;17.03;62.00
70248;BME280;57641;51.416;5.506;2022-10-26T04:45:16;101318.25;;;17.06;62.01
70248;BME280;57641;51.416;5.506;2022-10-26T04:47:42;101320.78;;;17.08;61.83
70248;BME280;57641;51.416;5.506;2022-10-26T04:50:09;101327.81;;;17.09;61.82
70248;BME280;57641;51.416;5.506;2022-10-26T04:52:35;101321.41;;;17.10;62.09
70248;BME280;57641;51.416;5.506;2022-10-26T04:55:01;101317.72;;;17.11;62.09
70248;BME280;57641;51.416;5.506;2022-10-26T04:57:31;101315.84;;;17.11;62.02
70248;BME280;57641;51.416;5.506;2022-10-26T04:59:57;101319.38;;;17.12;62.23
70248;BME280;57641;51.416;5.506;2022-10-26T05:02:23;101312.97;;;17.13;62.30
70248;BME280;57641;51.416;5.506;2022-10-26T05:04:49;101315.47;;;17.14;62.45
70248;BME280;57641;51.416;5.506;2022-10-26T05:07:14;101316.13;;;17.16;62.60
70248;BME280;57641;51.416;5.506;2022-10-26T05:09:39;101311.19;;;17.20;62.31
70248;BME280;57641;51.416;5.506;2022-10-26T05:12:05;101315.56;;;17.21;62.01
70248;BME280;57641;51.416;5.506;2022-10-26T05:14:30;101316.59;;;17.20;62.39
70248;BME280;57641;51.416;5.506;2022-10-26T05:16:56;101322.66;;;17.22;62.10
70248;BME280;57641;51.416;5.506;2022-10-26T05:19:22;101321.41;;;17.24;62.55
70248;BME280;57641;51.416;5.506;2022-10-26T05:21:47;101326.47;;;17.27;61.88
70248;BME280;57641;51.416;5.506;2022-10-26T05:24:13;101328.13;;;17.28;62.11
70248;BME280;57641;51.416;5.506;2022-10-26T05:26:38;101328.94;;;17.29;62.17
70248;BME280;57641;51.416;5.506;2022-10-26T05:29:03;101329.44;;;17.33;61.83
70248;BME280;57641;51.416;5.506;2022-10-26T05:31:29;101327.56;;;17.33;61.85
70248;BME280;57641;51.416;5.506;2022-10-26T05:33:54;101327.56;;;17.33;62.02
70248;BME280;57641;51.416;5.506;2022-10-26T05:36:20;101335.00;;;17.31;61.83
70248;BME280;57641;51.416;5.506;2022-10-26T05:38:46;101331.47;;;17.30;62.04
70248;BME280;57641;51.416;5.506;2022-10-26T05:41:11;101336.84;;;17.30;62.03
70248;BME280;57641;51.416;5.506;2022-10-26T05:43:37;101340.38;;;17.31;62.22
70248;BME280;57641;51.416;5.506;2022-10-26T05:46:03;101335.19;;;17.29;62.46
70248;BME280;57641;51.416;5.506;2022-10-26T05:48:28;101330.63;;;17.30;62.23
70248;BME280;57641;51.416;5.506;2022-10-26T05:50:58;101330.44;;;17.31;62.13
70248;BME280;57641;51.416;5.506;2022-10-26T05:53:25;101336.84;;;17.30;62.17
70248;BME280;57641;51.416;5.506;2022-10-26T05:55:51;101327.94;;;17.30;62.40
70248;BME280;57641;51.416;5.506;2022-10-26T05:58:16;101338.34;;;17.33;62.48
70248;BME280;57641;51.416;5.506;2022-10-26T06:00:56;101341.69;;;17.35;62.33
70248;BME280;57641;51.416;5.506;2022-10-26T06:03:34;101341.41;;;17.30;62.56
70248;BME280;57641;51.416;5.506;2022-10-26T06:06:03;101343.09;;;17.31;62.38
70248;BME280;57641;51.416;5.506;2022-10-26T06:08:29;101349.31;;;17.31;62.63
70248;BME280;57641;51.416;5.506;2022-10-26T06:10:56;101348.13;;;17.34;62.55
70248;BME280;57641;51.416;5.506;2022-10-26T06:13:27;101360.75;;;17.34;62.14
70248;BME280;57641;51.416;5.506;2022-10-26T06:16:35;101362.22;;;17.36;62.08
70248;BME280;57641;51.416;5.506;2022-10-26T06:21:33;101363.53;;;17.25;62.37
70248;BME280;57641;51.416;5.506;2022-10-26T06:24:41;101361.66;;;17.26;62.57
70248;BME280;57641;51.416;5.506;2022-10-26T06:27:24;101360.84;;;17.25;62.76
70248;BME280;57641;51.416;5.506;2022-10-26T06:30:00;101354.31;;;17.20;62.85
70248;BME280;57641;51.416;5.506;2022-10-26T06:32:26;101358.03;;;17.19;62.57
70248;BME280;57641;51.416;5.506;2022-10-26T06:37:39;101363.63;;;17.17;63.19
70248;BME280;57641;51.416;5.506;2022-10-26T06:40:07;101354.50;;;17.18;62.86
70248;BME280;57641;51.416;5.506;2022-10-26T06:42:34;101347.25;;;17.19;62.78
70248;BME280;57641;51.416;5.506;2022-10-26T06:44:59;101349.41;;;17.23;62.68
70248;BME280;57641;51.416;5.506;2022-10-26T06:50:37;101349.88;;;17.27;63.19
70248;BME280;57641;51.416;5.506;2022-10-26T06:53:26;101342.69;;;17.19;63.09
70248;BME280;57641;51.416;5.506;2022-10-26T06:55:54;101346.13;;;17.13;63.67
70248;BME280;57641;51.416;5.506;2022-10-26T06:58:26;101347.44;;;17.17;63.92
70248;BME280;57641;51.416;5.506;2022-10-26T07:00:54;101340.00;;;17.19;63.75
70248;BME280;57641;51.416;5.506;2022-10-26T07:03:20;101337.97;;;17.21;63.36
70248;BME280;57641;51.416;5.506;2022-10-26T07:05:46;101347.19;;;17.27;63.34
70248;BME280;57641;51.416;5.506;2022-10-26T07:08:11;101345.97;;;17.29;63.32
70248;BME280;57641;51.416;5.506;2022-10-26T07:10:37;101360.47;;;17.28;63.00
70248;BME280;57641;51.416;5.506;2022-10-26T07:13:08;101359.09;;;17.33;62.75
70248;BME280;57641;51.416;5.506;2022-10-26T07:15:37;101372.91;;;17.29;62.48
70248;BME280;57641;51.416;5.506;2022-10-26T07:18:04;101365.88;;;17.28;62.76
70248;BME280;57641;51.416;5.506;2022-10-26T07:20:32;101373.56;;;17.31;62.53
70248;BME280;57641;51.416;5.506;2022-10-26T07:22:59;101374.41;;;17.32;62.48
70248;BME280;57641;51.416;5.506;2022-10-26T07:25:25;101382.31;;;17.34;62.69
70248;BME280;57641;51.416;5.506;2022-10-26T07:27:51;101381.47;;;17.33;62.54
70248;BME280;57641;51.416;5.506;2022-10-26T07:30:17;101389.38;;;17.35;62.86
70248;BME280;57641;51.416;5.506;2022-10-26T07:32:42;101387.16;;;17.38;62.65
70248;BME280;57641;51.416;5.506;2022-10-26T07:35:08;101385.09;;;17.40;62.72
70248;BME280;57641;51.416;5.506;2022-10-26T07:37:34;101388.44;;;17.42;62.35
70248;BME280;57641;51.416;5.506;2022-10-26T07:39:59;101386.22;;;17.46;62.65
70248;BME280;57641;51.416;5.506;2022-10-26T07:42:24;101399.91;;;17.44;62.60
70248;BME280;57641;51.416;5.506;2022-10-26T07:44:50;101409.75;;;17.52;62.58
70248;BME280;57641;51.416;5.506;2022-10-26T07:47:15;101412.94;;;17.55;62.50
70248;BME280;57641;51.416;5.506;2022-10-26T07:49:41;101417.47;;;17.55;62.29
70248;BME280;57641;51.416;5.506;2022-10-26T07:52:08;101442.09;;;17.52;62.53
70248;BME280;57641;51.416;5.506;2022-10-26T07:54:34;101428.25;;;17.55;63.19
70248;BME280;57641;51.416;5.506;2022-10-26T07:56:59;101435.63;;;17.61;63.23
70248;BME280;57641;51.416;5.506;2022-10-26T07:59:25;101419.19;;;17.70;63.06
70248;BME280;57641;51.416;5.506;2022-10-26T08:01:51;101423.91;;;17.83;63.01
70248;BME280;57641;51.416;5.506;2022-10-26T08:04:16;101432.09;;;17.90;63.03
70248;BME280;57641;51.416;5.506;2022-10-26T08:06:42;101428.09;;;18.00;62.81
70248;BME280;57641;51.416;5.506;2022-10-26T08:09:07;101438.59;;;18.10;62.73
70248;BME280;57641;51.416;5.506;2022-10-26T08:11:33;101441.00;;;18.20;62.47
70248;BME280;57641;51.416;5.506;2022-10-26T08:14:01;101448.25;;;18.19;62.58
70248;BME280;57641;51.416;5.506;2022-10-26T08:16:27;101448.16;;;18.27;62.79
70248;BME280;57641;51.416;5.506;2022-10-26T08:18:53;101449.09;;;18.34;62.95
70248;BME280;57641;51.416;5.506;2022-10-26T08:21:19;101448.56;;;18.45;62.87
70248;BME280;57641;51.416;5.506;2022-10-26T08:23:44;101448.88;;;18.50;62.16
70248;BME280;57641;51.416;5.506;2022-10-26T08:26:10;101454.19;;;18.59;62.40
70248;BME280;57641;51.416;5.506;2022-10-26T08:28:36;101457.72;;;18.59;62.55
70248;BME280;57641;51.416;5.506;2022-10-26T08:31:03;101455.53;;;18.69;62.82
70248;BME280;57641;51.416;5.506;2022-10-26T08:33:28;101455.63;;;18.76;62.55
70248;BME280;57641;51.416;5.506;2022-10-26T08:35:58;101460.88;;;18.84;62.58
70248;BME280;57641;51.416;5.506;2022-10-26T08:38:24;101447.19;;;18.85;62.47
70248;BME280;57641;51.416;5.506;2022-10-26T08:40:51;101451.63;;;18.93;62.32
70248;BME280;57641;51.416;5.506;2022-10-26T08:46:15;101456.66;;;18.96;62.60
70248;BME280;57641;51.416;5.506;2022-10-26T08:49:09;101460.69;;;19.07;62.63
70248;BME280;57641;51.416;5.506;2022-10-26T08:51:40;101463.00;;;19.10;62.97
70248;BME280;57641;51.416;5.506;2022-10-26T08:54:18;101470.75;;;19.13;62.41
70248;BME280;57641;51.416;5.506;2022-10-26T08:56:50;101459.34;;;19.17;62.89
70248;BME280;57641;51.416;5.506;2022-10-26T08:59:33;101457.38;;;19.32;62.22
70248;BME280;57641;51.416;5.506;2022-10-26T09:02:00;101440.31;;;19.32;62.59
70248;BME280;57641;51.416;5.506;2022-10-26T09:04:28;101441.34;;;19.52;62.36
70248;BME280;57641;51.416;5.506;2022-10-26T09:09:45;101459.09;;;19.61;61.91
70248;BME280;57641;51.416;5.506;2022-10-26T09:20:47;101466.66;;;19.72;61.67
70248;BME280;57641;51.416;5.506;2022-10-26T09:26:00;101496.22;;;19.74;61.48
70248;BME280;57641;51.416;5.506;2022-10-26T09:28:30;101499.81;;;19.81;61.47
70248;BME280;57641;51.416;5.506;2022-10-26T09:30:58;101497.47;;;19.71;61.50
70248;BME280;57641;51.416;5.506;2022-10-26T09:33:25;101511.03;;;19.78;61.07
70248;BME280;57641;51.416;5.506;2022-10-26T09:36:02;101516.84;;;20.09;60.56
70248;BME280;57641;51.416;5.506;2022-10-26T09:38:37;101514.41;;;20.14;60.87
70248;BME280;57641;51.416;5.506;2022-10-26T09:49:23;101529.34;;;20.38;60.52
70248;BME280;57641;51.416;5.506;2022-10-26T09:51:54;101536.06;;;20.14;60.23
70248;BME280;57641;51.416;5.506;2022-10-26T09:54:20;101523.97;;;20.45;59.69
70248;BME280;57641;51.416;5.506;2022-10-26T09:56:58;101534.84;;;20.58;59.72
70248;BME280;57641;51.416;5.506;2022-10-26T09:59:26;101534.22;;;20.62;59.49
70248;BME280;57641;51.416;5.506;2022-10-26T10:01:52;101537.16;;;20.67;59.13
70248;BME280;57641;51.416;5.506;2022-10-26T10:04:20;101538.63;;;20.63;59.47
70248;BME280;57641;51.416;5.506;2022-10-26T10:07:16;101551.16;;;20.71;59.20
70248;BME280;57641;51.416;5.506;2022-10-26T10:09:42;101559.53;;;20.76;59.36
70248;BME280;57641;51.416;5.506;2022-10-26T10:12:18;101556.38;;;20.79;58.92
70248;BME280;57641;51.416;5.506;2022-10-26T10:14:58;101561.03;;;20.92;59.29
70248;BME280;57641;51.416;5.506;2022-10-26T10:17:24;101574.16;;;20.95;59.11
70248;BME280;57641;51.416;5.506;2022-10-26T10:19:50;101570.63;;;20.94;59.20
70248;BME280;57641;51.416;5.506;2022-10-26T10:24:59;101576.44;;;20.85;59.26
70248;BME280;57641;51.416;5.506;2022-10-26T10:27:26;101581.53;;;21.07;59.14
70248;BME280;57641;51.416;5.506;2022-10-26T10:29:54;101583.22;;;21.15;59.04
70248;BME280;57641;51.416;5.506;2022-10-26T10:32:25;101589.53;;;21.29;58.44
70248;BME280;57641;51.416;5.506;2022-10-26T10:34:54;101594.91;;;21.16;58.39
70248;BME280;57641;51.416;5.506;2022-10-26T10:37:37;101603.34;;;21.40;58.24
70248;BME280;57641;51.416;5.506;2022-10-26T10:40:25;101600.19;;;21.37;58.48
70248;BME280;57641;51.416;5.506;2022-10-26T10:43:00;101609.59;;;21.54;57.95
70248;BME280;57641;51.416;5.506;2022-10-26T10:45:28;101609.22;;;21.57;57.83
70248;BME280;57641;51.416;5.506;2022-10-26T10:48:16;101617.75;;;21.54;58.13
70248;BME280;57641;51.416;5.506;2022-10-26T10:51:03;101610.88;;;21.52;57.63
70248;BME280;57641;51.416;5.506;2022-10-26T10:53:35;101624.19;;;21.40;57.84
70248;BME280;57641;51.416;5.506;2022-10-26T11:01:11;101617.78;;;21.67;57.55
70248;BME280;57641;51.416;5.506;2022-10-26T11:06:15;101630.94;;;21.83;57.58
70248;BME280;57641;51.416;5.506;2022-10-26T11:08:49;101639.72;;;21.92;57.40
70248;BME280;57641;51.416;5.506;2022-10-26T11:11:27;101636.59;;;22.02;57.51
70248;BME280;57641;51.416;5.506;2022-10-26T11:14:11;101635.97;;;22.00;56.67
70248;BME280;57641;51.416;5.506;2022-10-26T11:16:43;101644.56;;;22.10;57.04
70248;BME280;57641;51.416;5.506;2022-10-26T11:19:33;101639.13;;;22.10;56.94
70248;BME280;57641;51.416;5.506;2022-10-26T11:22:01;101648.91;;;22.24;56.84
70248;BME280;57641;51.416;5.506;2022-10-26T11:24:32;101644.94;;;22.26;57.18
70248;BME280;57641;51.416;5.506;2022-10-26T11:32:21;101658.50;;;22.46;56.52
70248;BME280;57641;51.416;5.506;2022-10-26T11:37:48;101654.72;;;22.60;56.11
70248;BME280;57641;51.416;5.506;2022-10-26T11:40:50;101657.81;;;22.64;56.29
70248;BME280;57641;51.416;5.506;2022-10-26T11:43:35;101659.31;;;22.66;55.91
70248;BME280;57641;51.416;5.506;2022-10-26T11:48:58;101651.13;;;22.80;55.40
70248;BME280;57641;51.416;5.506;2022-10-26T11:51:32;101654.72;;;22.73;55.15
70248;BME280;57641;51.416;5.506;2022-10-26T11:54:12;101659.94;;;22.75;55.51
70248;BME280;57641;51.416;5.506;2022-10-26T11:56:44;101666.00;;;22.84;55.16
70248;BME280;57641;51.416;5.506;2022-10-26T11:59:18;101665.53;;;22.87;54.91
70248;BME280;57641;51.416;5.506;2022-10-26T12:01:59;101661.78;;;22.88;54.86
70248;BME280;57641;51.416;5.506;2022-10-26T12:04:29;101659.25;;;22.86;54.36
70248;BME280;57641;51.416;5.506;2022-10-26T12:06:56;101663.41;;;22.95;54.50
70248;BME280;57641;51.416;5.506;2022-10-26T12:09:30;101662.19;;;22.91;54.15
70248;BME280;57641;51.416;5.506;2022-10-26T12:14:55;101659.66;;;22.96;54.61
70248;BME280;57641;51.416;5.506;2022-10-26T12:17:57;101678.88;;;23.01;54.94
70248;BME280;57641;51.416;5.506;2022-10-26T12:23:11;101684.81;;;22.65;55.03
70248;BME280;57641;51.416;5.506;2022-10-26T12:25:37;101692.09;;;22.85;55.11
70248;BME280;57641;51.416;5.506;2022-10-26T12:28:03;101686.06;;;22.83;54.72
70248;BME280;57641;51.416;5.506;2022-10-26T12:30:29;101687.28;;;22.93;54.94
70248;BME280;57641;51.416;5.506;2022-10-26T12:33:00;101678.28;;;22.99;53.94
70248;BME280;57641;51.416;5.506;2022-10-26T12:35:42;101681.19;;;22.98;53.63
70248;BME280;57641;51.416;5.506;2022-10-26T12:40:46;101685.34;;;23.07;53.87
70248;BME280;57641;51.416;5.506;2022-10-26T12:45:37;101695.81;;;23.10;53.11
70248;BME280;57641;51.416;5.506;2022-10-26T12:48:10;101697.25;;;23.12;52.41
70248;BME280;57641;51.416;5.506;2022-10-26T12:50:45;101705.44;;;23.06;52.35
70248;BME280;57641;51.416;5.506;2022-10-26T12:53:12;101694.91;;;23.23;52.32
70248;BME280;57641;51.416;5.506;2022-10-26T12:58:36;101693.28;;;23.15;52.10
70248;BME280;57641;51.416;5.506;2022-10-26T13:08:54;101699.31;;;23.24;52.27
70248;BME280;57641;51.416;5.506;2022-10-26T13:11:35;101698.91;;;23.20;52.23
70248;BME280;57641;51.416;5.506;2022-10-26T13:14:58;101701.38;;;23.22;52.12
70248;BME280;57641;51.416;5.506;2022-10-26T13:17:20;101708.75;;;23.21;51.96
70248;BME280;57641;51.416;5.506;2022-10-26T13:19:48;101701.44;;;23.15;51.69
70248;BME280;57641;51.416;5.506;2022-10-26T13:22:14;101710.34;;;23.35;51.91
70248;BME280;57641;51.416;5.506;2022-10-26T13:24:50;101710.31;;;23.42;51.87
70248;BME280;57641;51.416;5.506;2022-10-26T13:32:38;101716.44;;;23.31;51.69
70248;BME280;57641;51.416;5.506;2022-10-26T13:35:11;101714.78;;;23.23;51.94
70248;BME280;57641;51.416;5.506;2022-10-26T13:37:40;101725.47;;;23.25;51.00
70248;BME280;57641;51.416;5.506;2022-10-26T13:40:11;101728.16;;;23.31;51.21
70248;BME280;57641;51.416;5.506;2022-10-26T13:42:44;101729.91;;;23.06;50.51
70248;BME280;57641;51.416;5.506;2022-10-26T13:45:14;101725.25;;;23.26;50.74
70248;BME280;57641;51.416;5.506;2022-10-26T13:50:15;101735.72;;;23.23;50.78
70248;BME280;57641;51.416;5.506;2022-10-26T13:52:44;101726.31;;;23.25;50.95
70248;BME280;57641;51.416;5.506;2022-10-26T13:55:21;101720.19;;;23.36;50.92
70248;BME280;57641;51.416;5.506;2022-10-26T14:00:29;101725.81;;;23.41;50.98
70248;BME280;57641;51.416;5.506;2022-10-26T14:02:55;101725.00;;;23.47;50.52
70248;BME280;57641;51.416;5.506;2022-10-26T14:05:21;101727.25;;;23.44;50.75
70248;BME280;57641;51.416;5.506;2022-10-26T14:07:51;101722.34;;;23.21;50.07
70248;BME280;57641;51.416;5.506;2022-10-26T14:12:59;101734.50;;;23.12;50.11
70248;BME280;57641;51.416;5.506;2022-10-26T14:15:27;101731.56;;;23.20;50.33
70248;BME280;57641;51.416;5.506;2022-10-26T14:17:57;101736.75;;;23.22;49.86
70248;BME280;57641;51.416;5.506;2022-10-26T14:20:25;101748.06;;;23.32;50.44
70248;BME280;57641;51.416;5.506;2022-10-26T14:22:52;101749.94;;;23.31;50.17
70248;BME280;57641;51.416;5.506;2022-10-26T14:25:28;101750.72;;;23.38;50.55
70248;BME280;57641;51.416;5.506;2022-10-26T14:27:55;101759.78;;;23.26;50.63
70248;BME280;57641;51.416;5.506;2022-10-26T14:30:27;101760.00;;;23.17;50.12
70248;BME280;57641;51.416;5.506;2022-10-26T14:32:53;101774.66;;;23.23;50.00
70248;BME280;57641;51.416;5.506;2022-10-26T14:35:32;101768.97;;;23.31;50.24
70248;BME280;57641;51.416;5.506;2022-10-26T14:38:05;101772.97;;;23.22;50.54
70248;BME280;57641;51.416;5.506;2022-10-26T14:40:36;101785.72;;;23.22;50.66
70248;BME280;57641;51.416;5.506;2022-10-26T14:43:03;101787.44;;;23.16;50.27
70248;BME280;57641;51.416;5.506;2022-10-26T14:45:31;101801.03;;;23.23;50.16
70248;BME280;57641;51.416;5.506;2022-10-26T14:48:00;101793.28;;;23.26;50.46
70248;BME280;57641;51.416;5.506;2022-10-26T14:50:26;101798.09;;;23.11;50.38
70248;BME280;57641;51.416;5.506;2022-10-26T14:53:00;101807.53;;;23.15;50.00
70248;BME280;57641;51.416;5.506;2022-10-26T14:55:27;101808.78;;;23.19;50.40
70248;BME280;57641;51.416;5.506;2022-10-26T14:58:13;101803.31;;;23.26;50.72
70248;BME280;57641;51.416;5.506;2022-10-26T15:00:41;101808.97;;;23.24;50.10
70248;BME280;57641;51.416;5.506;2022-10-26T15:03:14;101813.97;;;23.27;50.48